Smethport, North Carolina
Current Conditions -  °F | °C
As of 12:15 PM on Saturday 25 Oct 2014 (Local Time) from KGEV Reporting Station
Clear Clear  
Wind Chill: 61°   Ceiling: Unl
Heat Index: 61°   Visibility: 10mi
Dew Point: 18°   Wind: 9mph
Humidity: 19%   Direction: 270°W
Pressure: 30.06"   Gusts: NA
Location:  36.358°N, 81.4709°W
Report Text: KGEV 251615Z AUTO 27008KT 10SM CLR 16/M08 A3006 RMK AO2 T01611080
Loading
Personal Weather Stations






























Interactive Weather Map
Tropical Storm Tracking
New forecast layout! Learn more

10-Day Weather Forecast

Advertisements
Track Severe Weather on mobile